createdAt,value
2023-12-18T00:01:46.204Z,-1.00
2023-12-18T00:04:14.404Z,-0.90
2023-12-18T00:06:42.743Z,-0.90
2023-12-18T00:09:11.112Z,-0.80
2023-12-18T00:11:39.416Z,-0.70
2023-12-18T00:14:08.654Z,-0.78
2023-12-18T00:16:36.733Z,-0.72
2023-12-18T00:19:06.073Z,-0.70
2023-12-18T00:21:34.486Z,-0.70
2023-12-18T00:24:04.398Z,-0.70
2023-12-18T00:26:48.142Z,-0.70
2023-12-18T00:29:30.320Z,-0.70
2023-12-18T00:32:00.861Z,-0.60
2023-12-18T00:34:29.675Z,-0.70
2023-12-18T00:36:57.969Z,-0.72
2023-12-18T00:39:29.086Z,-0.80
2023-12-18T00:41:57.186Z,-0.90
2023-12-18T00:44:25.405Z,-0.90
2023-12-18T00:46:53.573Z,-0.90
2023-12-18T00:49:21.825Z,-0.90
2023-12-18T00:51:50.088Z,-0.96
2023-12-18T00:54:19.616Z,-1.00
2023-12-18T00:56:47.797Z,-0.98
2023-12-18T00:59:15.928Z,-1.00
2023-12-18T01:01:44.087Z,-1.00
2023-12-18T01:04:12.846Z,-1.10
2023-12-18T01:06:41.159Z,-1.10
2023-12-18T01:09:10.126Z,-1.10
2023-12-18T01:11:38.347Z,-1.10
2023-12-18T01:14:06.396Z,-1.20
2023-12-18T01:16:34.402Z,-1.20
2023-12-18T01:19:04.031Z,-1.20
2023-12-18T01:21:32.328Z,-1.20
2023-12-18T01:24:00.961Z,-1.10
2023-12-18T01:26:29.107Z,-1.02
2023-12-18T01:28:57.188Z,-1.00
2023-12-18T01:31:25.537Z,-0.96
2023-12-18T01:33:54.839Z,-0.92
2023-12-18T01:36:26.423Z,-1.04
2023-12-18T01:38:57.330Z,-1.00
2023-12-18T01:41:25.451Z,-1.00
2023-12-18T01:43:53.586Z,-1.02
2023-12-18T01:46:25.284Z,-1.08
2023-12-18T01:48:53.797Z,-1.10
2023-12-18T01:51:24.009Z,-1.10
2023-12-18T01:53:54.320Z,-1.10
2023-12-18T01:56:23.659Z,-1.06
2023-12-18T01:58:51.762Z,-1.10
2023-12-18T02:01:20.036Z,-1.10
2023-12-18T02:03:48.172Z,-1.20
2023-12-18T02:06:17.424Z,-1.20
2023-12-18T02:08:45.551Z,-1.20
2023-12-18T02:11:13.608Z,-1.20
2023-12-18T02:13:42.216Z,-1.14
2023-12-18T02:16:11.064Z,-1.10
2023-12-18T02:18:48.743Z,-1.04
2023-12-18T02:21:22.853Z,-1.10
2023-12-18T02:23:51.090Z,-1.12
2023-12-18T02:26:19.303Z,-1.12
2023-12-18T02:28:47.473Z,-1.10
2023-12-18T02:31:15.836Z,-1.10
2023-12-18T02:33:49.957Z,-1.00
2023-12-18T02:36:18.422Z,-1.10
2023-12-18T02:38:46.476Z,-1.20
2023-12-18T02:41:14.523Z,-1.20
2023-12-18T02:43:42.851Z,-1.20
2023-12-18T02:46:11.029Z,-1.20
2023-12-18T02:48:39.430Z,-1.20
2023-12-18T02:51:07.892Z,-1.26
2023-12-18T02:53:36.813Z,-1.30
2023-12-18T02:56:05.382Z,-1.30
2023-12-18T02:58:33.545Z,-1.26
2023-12-18T03:01:01.612Z,-1.20
2023-12-18T03:03:29.699Z,-1.30
2023-12-18T03:05:58.000Z,-1.40
2023-12-18T03:08:26.346Z,-1.40
2023-12-18T03:10:55.135Z,-1.30
2023-12-18T03:13:23.275Z,-1.30
2023-12-18T03:15:51.569Z,-1.30
2023-12-18T03:18:19.867Z,-1.30
2023-12-18T03:20:49.208Z,-1.36
2023-12-18T03:23:17.312Z,-1.30
2023-12-18T03:25:45.434Z,-1.28
2023-12-18T03:28:14.561Z,-1.20
2023-12-18T03:30:43.018Z,-1.30
2023-12-18T03:33:11.522Z,-1.30
2023-12-18T03:35:39.920Z,-1.30
2023-12-18T03:38:08.161Z,-1.40
2023-12-18T03:40:36.283Z,-1.40
2023-12-18T03:43:04.666Z,-1.50
2023-12-18T03:45:32.817Z,-1.40
2023-12-18T03:48:01.030Z,-1.50
2023-12-18T03:50:29.099Z,-1.50
2023-12-18T03:52:57.397Z,-1.50
2023-12-18T03:55:25.647Z,-1.50
2023-12-18T03:57:55.227Z,-1.48
2023-12-18T04:00:23.315Z,-1.50
2023-12-18T04:02:51.364Z,-1.50
2023-12-18T04:05:19.748Z,-1.50
2023-12-18T04:07:47.983Z,-1.50
2023-12-18T04:10:16.461Z,-1.46
2023-12-18T04:12:45.956Z,-1.40
2023-12-18T04:15:14.278Z,-1.50
2023-12-18T04:17:42.750Z,-1.50
2023-12-18T04:20:11.768Z,-1.48
2023-12-18T04:22:45.975Z,-1.40
2023-12-18T04:25:15.272Z,-1.40
2023-12-18T04:27:43.574Z,-1.30
2023-12-18T04:30:12.688Z,-1.30
2023-12-18T04:32:43.045Z,-1.24
2023-12-18T04:35:12.997Z,-1.20
2023-12-18T04:37:41.357Z,-1.24
2023-12-18T04:40:11.412Z,-1.18
2023-12-18T04:42:39.651Z,-1.12
2023-12-18T04:45:08.414Z,-1.08
2023-12-18T04:47:36.823Z,-1.00
2023-12-18T04:50:05.965Z,-1.10
2023-12-18T04:52:34.198Z,-1.08
2023-12-18T04:55:02.529Z,-1.04
2023-12-18T04:57:30.745Z,-1.18
2023-12-18T04:59:59.105Z,-1.20
2023-12-18T05:02:27.422Z,-1.22
2023-12-18T05:04:55.708Z,-1.24
2023-12-18T05:07:24.268Z,-1.28
2023-12-18T05:09:52.532Z,-1.38
2023-12-18T05:12:20.957Z,-1.42
2023-12-18T05:14:49.366Z,-1.50
2023-12-18T05:17:17.635Z,-1.60
2023-12-18T05:19:46.078Z,-1.60
2023-12-18T05:22:14.368Z,-1.70
2023-12-18T05:24:42.396Z,-1.70
2023-12-18T05:27:10.451Z,-1.60
2023-12-18T05:29:38.783Z,-1.60
2023-12-18T05:32:07.208Z,-1.70
2023-12-18T05:34:35.431Z,-1.70
2023-12-18T05:37:03.769Z,-1.78
2023-12-18T05:39:31.979Z,-1.70
2023-12-18T05:42:00.136Z,-1.70
2023-12-18T05:44:28.413Z,-1.70
2023-12-18T05:46:56.953Z,-1.80
2023-12-18T05:49:25.144Z,-1.78
2023-12-18T05:51:53.405Z,-1.70
2023-12-18T05:54:21.588Z,-1.76
2023-12-18T05:56:49.745Z,-1.80
2023-12-18T05:59:17.896Z,-1.78
2023-12-18T06:01:46.378Z,-1.70
2023-12-18T06:04:14.622Z,-1.66
2023-12-18T06:06:43.120Z,-1.70
2023-12-18T06:09:11.519Z,-1.70
2023-12-18T06:11:39.763Z,-1.62
2023-12-18T06:14:08.088Z,-1.60
2023-12-18T06:16:36.285Z,-1.68
2023-12-18T06:19:04.640Z,-1.68
2023-12-18T06:21:33.005Z,-1.62
2023-12-18T06:24:01.179Z,-1.60
2023-12-18T06:26:30.377Z,-1.50
2023-12-18T06:28:58.620Z,-1.44
2023-12-18T06:31:26.827Z,-1.48
2023-12-18T06:33:55.366Z,-1.40
2023-12-18T06:36:23.670Z,-1.40
2023-12-18T06:38:51.841Z,-1.34
2023-12-18T06:41:19.989Z,-1.40
2023-12-18T06:43:48.280Z,-1.32
2023-12-18T06:46:16.497Z,-1.38
2023-12-18T06:48:44.799Z,-1.36
2023-12-18T06:51:12.998Z,-1.40
2023-12-18T06:53:41.084Z,-1.50
2023-12-18T06:56:09.866Z,-1.60
2023-12-18T06:58:37.979Z,-1.70
2023-12-18T07:01:07.395Z,-1.70
2023-12-18T07:03:35.882Z,-1.70
2023-12-18T07:06:04.525Z,-1.60
2023-12-18T07:08:32.764Z,-1.50
2023-12-18T07:11:01.478Z,-1.50
2023-12-18T07:13:29.828Z,-1.50
2023-12-18T07:15:58.173Z,-1.50
2023-12-18T07:18:29.677Z,-1.50
2023-12-18T07:20:57.939Z,-1.48
2023-12-18T07:23:26.599Z,-1.46
2023-12-18T07:25:59.169Z,-1.50
2023-12-18T07:28:27.140Z,-1.50
2023-12-18T07:30:55.294Z,-1.50
2023-12-18T07:33:23.618Z,-1.50
2023-12-18T07:35:53.679Z,-1.56
2023-12-18T07:38:21.729Z,-1.60
2023-12-18T07:40:49.864Z,-1.54
2023-12-18T07:43:18.168Z,-1.52
2023-12-18T07:45:46.274Z,-1.50
2023-12-18T07:48:14.785Z,-1.50
2023-12-18T07:50:42.974Z,-1.60
2023-12-18T07:53:11.106Z,-1.54
2023-12-18T07:55:40.563Z,-1.60
2023-12-18T07:58:08.836Z,-1.64
2023-12-18T08:00:37.145Z,-1.74
2023-12-18T08:03:05.947Z,-1.70
2023-12-18T08:05:34.464Z,-1.80
2023-12-18T08:08:03.401Z,-1.70
2023-12-18T08:10:31.604Z,-1.58
2023-12-18T08:12:59.832Z,-1.60
2023-12-18T08:15:28.061Z,-1.52
2023-12-18T08:17:56.387Z,-1.50
2023-12-18T08:20:24.610Z,-1.40
2023-12-18T08:22:52.833Z,-1.30
2023-12-18T08:25:22.305Z,-1.20
2023-12-18T08:27:50.495Z,-1.20
2023-12-18T08:30:18.649Z,-1.20
2023-12-18T08:32:47.286Z,-1.20
2023-12-18T08:35:15.424Z,-1.20
2023-12-18T08:37:43.525Z,-1.20
2023-12-18T08:40:12.226Z,-1.20
2023-12-18T08:42:40.443Z,-1.20
2023-12-18T08:45:09.628Z,-1.20
2023-12-18T08:47:37.666Z,-1.12
2023-12-18T08:50:06.220Z,-1.10
2023-12-18T08:52:34.359Z,-1.10
2023-12-18T08:55:03.626Z,-1.20
2023-12-18T08:57:31.936Z,-1.12
2023-12-18T09:00:00.646Z,-1.10
2023-12-18T09:02:31.535Z,-1.10
2023-12-18T09:04:59.550Z,-1.10
2023-12-18T09:07:31.181Z,-1.10
2023-12-18T09:09:59.373Z,-1.10
2023-12-18T09:12:27.515Z,-1.02
2023-12-18T09:14:55.619Z,-1.00
2023-12-18T09:17:23.864Z,-0.90
2023-12-18T09:19:52.105Z,-0.90
2023-12-18T09:22:20.460Z,-0.98
2023-12-18T09:24:49.275Z,-0.90
2023-12-18T09:27:17.578Z,-0.90
2023-12-18T09:29:45.815Z,-0.90
2023-12-18T09:32:14.454Z,-0.90
2023-12-18T09:34:43.140Z,-0.90
2023-12-18T09:37:11.272Z,-0.90
2023-12-18T09:39:42.211Z,-1.00
2023-12-18T09:42:11.607Z,-1.00
2023-12-18T09:44:41.146Z,-0.92
2023-12-18T09:47:09.184Z,-0.90
2023-12-18T09:49:37.293Z,-0.80
2023-12-18T09:52:09.718Z,-0.70
2023-12-18T09:54:38.769Z,-0.60
2023-12-18T09:57:07.594Z,-0.50
2023-12-18T09:59:35.816Z,-0.60
2023-12-18T10:02:04.506Z,-0.60
2023-12-18T10:04:32.691Z,-0.50
2023-12-18T10:07:01.189Z,-0.60
2023-12-18T10:09:33.010Z,-0.60
2023-12-18T10:12:01.241Z,-0.60
2023-12-18T10:14:29.567Z,-0.50
2023-12-18T10:16:58.151Z,-0.50
2023-12-18T10:19:28.956Z,-0.50
2023-12-18T10:21:57.485Z,-0.50
2023-12-18T10:24:26.472Z,-0.40
2023-12-18T10:26:55.778Z,-0.30
2023-12-18T10:29:24.265Z,-0.30
2023-12-18T10:31:52.836Z,-0.22
2023-12-18T10:34:22.574Z,-0.20
2023-12-18T10:36:51.172Z,-0.20
2023-12-18T10:39:20.338Z,-0.20
2023-12-18T10:41:54.052Z,-0.10
2023-12-18T10:44:22.719Z,-0.10
2023-12-18T10:46:51.072Z,-0.06
2023-12-18T10:49:19.560Z,-0.06
2023-12-18T10:51:47.813Z,0.00
2023-12-18T10:54:19.221Z,0.00
2023-12-18T10:56:47.642Z,0.08
2023-12-18T10:59:15.748Z,0.00
2023-12-18T11:01:45.849Z,0.00
2023-12-18T11:04:14.802Z,0.00
2023-12-18T11:06:43.104Z,0.02
2023-12-18T11:09:11.476Z,0.10
2023-12-18T11:11:39.753Z,0.64
2023-12-18T11:14:22.107Z,1.10
2023-12-18T11:16:59.148Z,1.10
2023-12-18T11:19:33.255Z,1.06
2023-12-18T11:22:24.312Z,1.22
2023-12-18T11:24:54.337Z,1.28
2023-12-18T11:27:22.714Z,1.24
2023-12-18T11:29:50.962Z,1.24
2023-12-18T11:32:47.274Z,1.10
2023-12-18T11:35:16.547Z,0.70
2023-12-18T11:37:48.682Z,0.70
2023-12-18T11:40:32.833Z,0.50
2023-12-18T11:43:01.373Z,0.40
2023-12-18T11:45:29.705Z,0.40
2023-12-18T11:47:58.866Z,0.42
2023-12-18T11:50:27.741Z,0.40
2023-12-18T11:52:57.274Z,0.30
2023-12-18T11:55:54.795Z,0.40
2023-12-18T11:58:26.925Z,0.36
2023-12-18T12:00:58.417Z,0.30
2023-12-18T12:03:27.186Z,0.30
2023-12-18T12:05:55.605Z,0.30
2023-12-18T12:08:24.101Z,0.30
2023-12-18T12:10:52.907Z,0.30
2023-12-18T12:13:23.141Z,0.30
2023-12-18T12:15:57.647Z,0.30
2023-12-18T12:18:30.449Z,0.30
2023-12-18T12:21:01.158Z,0.24
2023-12-18T12:23:29.460Z,0.30
2023-12-18T12:26:01.860Z,0.30
2023-12-18T12:28:30.978Z,0.30
2023-12-18T12:31:00.666Z,0.40
2023-12-18T12:33:42.146Z,0.30
2023-12-18T12:36:14.307Z,0.30
2023-12-18T12:38:43.525Z,0.30
2023-12-18T12:41:12.175Z,0.30
2023-12-18T12:43:40.688Z,0.28
2023-12-18T12:46:11.816Z,0.20
2023-12-18T12:48:41.858Z,0.18
2023-12-18T12:51:10.663Z,0.00
2023-12-18T12:53:41.196Z,0.10
2023-12-18T12:56:10.631Z,0.06
2023-12-18T12:58:39.004Z,0.10
2023-12-18T13:01:08.832Z,0.08
2023-12-18T13:03:37.831Z,0.00
2023-12-18T13:06:06.603Z,0.00
2023-12-18T13:08:34.851Z,0.10
2023-12-18T13:11:06.235Z,0.10
2023-12-18T13:13:34.724Z,0.10
2023-12-18T13:16:03.244Z,0.10
2023-12-18T13:18:31.752Z,0.16
2023-12-18T13:20:59.942Z,0.00
2023-12-18T13:23:28.135Z,0.00
2023-12-18T13:25:56.336Z,0.00
2023-12-18T13:28:24.525Z,0.00
2023-12-18T13:30:53.462Z,0.00
2023-12-18T13:33:22.020Z,0.00
2023-12-18T13:35:50.447Z,0.00
2023-12-18T13:38:18.651Z,0.00
2023-12-18T13:40:46.963Z,0.00
2023-12-18T13:43:15.311Z,0.00
2023-12-18T13:45:43.692Z,0.00
2023-12-18T13:48:12.059Z,0.00
2023-12-18T13:50:41.312Z,-0.10
2023-12-18T13:53:09.386Z,-0.10
2023-12-18T13:55:37.468Z,-0.18
2023-12-18T13:58:05.856Z,-0.20
2023-12-18T14:00:34.781Z,-0.10
2023-12-18T14:03:04.816Z,0.00
2023-12-18T14:05:33.200Z,-0.10
2023-12-18T14:08:01.567Z,0.00
2023-12-18T14:10:30.280Z,0.00
2023-12-18T14:12:58.628Z,-0.10
2023-12-18T14:15:26.894Z,-0.10
2023-12-18T14:17:55.297Z,-0.10
2023-12-18T14:20:24.266Z,-0.10
2023-12-18T14:22:52.617Z,-0.12
2023-12-18T14:25:21.278Z,-0.10
2023-12-18T14:27:49.678Z,-0.10
2023-12-18T14:30:20.455Z,-0.10
2023-12-18T14:32:49.531Z,0.00
2023-12-18T14:35:17.966Z,-0.12
2023-12-18T14:37:46.852Z,-0.10
2023-12-18T14:40:15.154Z,-0.10
2023-12-18T14:42:45.122Z,-0.18
2023-12-18T14:45:14.330Z,-0.20
2023-12-18T14:47:42.696Z,-0.18
2023-12-18T14:50:11.208Z,-0.18
2023-12-18T14:52:39.672Z,-0.10
2023-12-18T14:55:08.512Z,-0.10
2023-12-18T14:57:37.719Z,-0.10
2023-12-18T15:00:06.619Z,-0.20
2023-12-18T15:02:34.899Z,-0.20
2023-12-18T15:05:03.777Z,-0.30
2023-12-18T15:07:32.329Z,-0.30
2023-12-18T15:10:00.830Z,-0.30
2023-12-18T15:12:29.376Z,-0.22
2023-12-18T15:14:57.489Z,-0.28
2023-12-18T15:17:26.339Z,-0.30
2023-12-18T15:19:54.934Z,-0.30
2023-12-18T15:22:26.859Z,-0.30
2023-12-18T15:24:55.596Z,-0.20
2023-12-18T15:27:23.879Z,-0.20
2023-12-18T15:29:52.965Z,-0.18
2023-12-18T15:32:21.578Z,-0.20
2023-12-18T15:34:50.032Z,-0.32
2023-12-18T15:37:18.381Z,-0.40
2023-12-18T15:39:47.346Z,-0.40
2023-12-18T15:42:15.522Z,-0.40
2023-12-18T15:44:43.763Z,-0.50
2023-12-18T15:47:12.168Z,-0.50
2023-12-18T15:49:40.650Z,-0.50
2023-12-18T15:52:09.289Z,-0.50
2023-12-18T15:54:37.857Z,-0.42
2023-12-18T15:57:06.313Z,-0.42
2023-12-18T15:59:34.773Z,-0.42
2023-12-18T16:02:02.963Z,-0.50
2023-12-18T16:04:31.384Z,-0.30
2023-12-18T16:07:00.903Z,-0.26
2023-12-18T16:09:29.352Z,-0.24
2023-12-18T16:11:57.465Z,-0.24
2023-12-18T16:14:25.896Z,-0.26
2023-12-18T16:16:54.399Z,-0.26
2023-12-18T16:19:22.961Z,-0.20
2023-12-18T16:21:51.422Z,-0.20
2023-12-18T16:24:19.786Z,-0.20
2023-12-18T16:26:48.569Z,-0.10
2023-12-18T16:29:20.487Z,-0.10
2023-12-18T16:31:48.874Z,-0.20
2023-12-18T16:34:17.362Z,-0.12
2023-12-18T16:36:45.942Z,-0.20
2023-12-18T16:39:17.217Z,-0.10
2023-12-18T16:41:46.033Z,-0.02
2023-12-18T16:44:24.752Z,-0.04
2023-12-18T16:46:53.184Z,-0.08
2023-12-18T16:49:33.362Z,-0.10
2023-12-18T16:52:03.774Z,-0.20
2023-12-18T16:54:38.039Z,-0.12
2023-12-18T16:57:08.242Z,-0.10
2023-12-18T16:59:36.539Z,-0.08
2023-12-18T17:02:06.786Z,-0.10
2023-12-18T17:04:35.571Z,-0.10
2023-12-18T17:07:06.830Z,-0.02
2023-12-18T17:09:39.485Z,0.00
2023-12-18T17:12:08.289Z,0.00
2023-12-18T17:14:36.532Z,0.00
2023-12-18T17:17:22.150Z,0.00
2023-12-18T17:20:06.680Z,0.10
2023-12-18T17:22:36.497Z,0.10
2023-12-18T17:25:05.490Z,0.12
2023-12-18T17:27:33.995Z,0.10
2023-12-18T17:30:02.306Z,0.00
2023-12-18T17:32:30.660Z,-0.10
2023-12-18T17:34:59.949Z,0.00
2023-12-18T17:37:28.741Z,-0.10
2023-12-18T17:39:57.213Z,-0.10
2023-12-18T17:42:31.928Z,-0.10
2023-12-18T17:45:01.751Z,-0.10
2023-12-18T17:47:30.377Z,-0.10
2023-12-18T17:50:00.229Z,-0.10
2023-12-18T17:52:28.828Z,-0.10
2023-12-18T17:54:57.160Z,-0.10
2023-12-18T17:57:25.304Z,-0.18
2023-12-18T17:59:55.805Z,-0.10
2023-12-18T18:02:28.484Z,-0.18
2023-12-18T18:04:56.929Z,-0.20
2023-12-18T18:07:25.129Z,-0.10
2023-12-18T18:09:53.568Z,-0.10
2023-12-18T18:12:22.078Z,-0.20
2023-12-18T18:14:52.678Z,-0.20
2023-12-18T18:17:22.494Z,-0.16
2023-12-18T18:19:51.285Z,-0.18
2023-12-18T18:22:19.768Z,-0.18
2023-12-18T18:24:48.205Z,-0.20
2023-12-18T18:27:18.468Z,-0.20
2023-12-18T18:29:49.884Z,-0.26
2023-12-18T18:32:20.744Z,-0.20
2023-12-18T18:34:52.319Z,-0.30
2023-12-18T18:37:20.526Z,-0.30
2023-12-18T18:39:50.010Z,-0.20
2023-12-18T18:42:18.143Z,-0.20
2023-12-18T18:44:46.463Z,-0.20
2023-12-18T18:47:14.624Z,-0.20
2023-12-18T18:49:45.510Z,-0.22
2023-12-18T18:52:14.018Z,-0.30
2023-12-18T18:54:43.221Z,-0.40
2023-12-18T18:57:14.557Z,-0.40
2023-12-18T18:59:43.285Z,-0.48
2023-12-18T19:02:11.617Z,-0.40
2023-12-18T19:04:40.649Z,-0.40
2023-12-18T19:07:09.449Z,-0.50
2023-12-18T19:09:37.554Z,-0.46
2023-12-18T19:12:06.084Z,-0.40
2023-12-18T19:14:34.291Z,-0.42
2023-12-18T19:17:05.617Z,-0.40
2023-12-18T19:19:34.815Z,-0.40
2023-12-18T19:22:03.328Z,-0.40
2023-12-18T19:24:34.143Z,-0.40
2023-12-18T19:27:08.874Z,-0.42
2023-12-18T19:29:37.067Z,-0.40
2023-12-18T19:32:05.157Z,-0.40
2023-12-18T19:34:34.673Z,-0.30
2023-12-18T19:37:05.777Z,-0.36
2023-12-18T19:39:34.513Z,-0.32
2023-12-18T19:42:05.540Z,-0.38
2023-12-18T19:44:34.842Z,-0.40
2023-12-18T19:47:04.388Z,-0.50
2023-12-18T19:49:32.617Z,-0.50
2023-12-18T19:52:04.205Z,-0.50
2023-12-18T19:54:32.729Z,-0.42
2023-12-18T19:57:00.930Z,-0.48
2023-12-18T19:59:29.080Z,-0.46
2023-12-18T20:02:01.587Z,-0.40
2023-12-18T20:04:29.867Z,-0.48
2023-12-18T20:06:58.551Z,-0.50
2023-12-18T20:09:27.934Z,-0.60
2023-12-18T20:11:56.204Z,-0.70
2023-12-18T20:14:24.751Z,-0.80
2023-12-18T20:16:53.918Z,-0.80
2023-12-18T20:19:23.662Z,-0.80
2023-12-18T20:21:54.748Z,-0.76
2023-12-18T20:24:23.316Z,-0.70
2023-12-18T20:26:51.473Z,-0.74
2023-12-18T20:29:35.805Z,-0.90
2023-12-18T20:32:08.966Z,-0.90
2023-12-18T20:34:43.489Z,-0.92
2023-12-18T20:37:19.934Z,-1.00
2023-12-18T20:39:48.296Z,-1.10
2023-12-18T20:42:16.713Z,-1.12
2023-12-18T20:44:53.629Z,-1.10
2023-12-18T20:47:21.988Z,-1.16
2023-12-18T20:49:51.299Z,-1.22
2023-12-18T20:52:19.554Z,-1.12
2023-12-18T20:54:48.059Z,-1.08
2023-12-18T20:57:20.841Z,-0.98
2023-12-18T21:00:07.365Z,-1.00
2023-12-18T21:02:41.821Z,-1.10
2023-12-18T21:05:12.729Z,-1.14
2023-12-18T21:07:41.018Z,-1.12
2023-12-18T21:10:09.701Z,-1.16
2023-12-18T21:12:37.812Z,-1.20
2023-12-18T21:15:06.826Z,-1.20
2023-12-18T21:17:35.171Z,-1.20
2023-12-18T21:20:03.446Z,-1.20
2023-12-18T21:22:33.154Z,-1.20
2023-12-18T21:25:01.525Z,-1.20
2023-12-18T21:27:29.805Z,-1.20
2023-12-18T21:29:57.923Z,-1.18
2023-12-18T21:32:26.253Z,-1.20
2023-12-18T21:34:54.830Z,-1.10
2023-12-18T21:37:23.229Z,-1.20
2023-12-18T21:39:53.111Z,-1.28
2023-12-18T21:42:21.441Z,-1.26
2023-12-18T21:44:49.745Z,-1.30
2023-12-18T21:47:18.023Z,-1.20
2023-12-18T21:49:47.689Z,-1.14
2023-12-18T21:52:16.075Z,-1.08
2023-12-18T21:54:44.085Z,-1.10
2023-12-18T21:57:38.857Z,-1.10
2023-12-18T22:00:08.265Z,-1.20
2023-12-18T22:02:39.148Z,-1.20
2023-12-18T22:05:07.717Z,-1.38
2023-12-18T22:07:35.827Z,-1.50
2023-12-18T22:10:06.509Z,-1.44
2023-12-18T22:12:36.821Z,-1.40
2023-12-18T22:15:05.616Z,-1.40
2023-12-18T22:17:33.804Z,-1.40
2023-12-18T22:20:04.267Z,-1.40
2023-12-18T22:22:32.335Z,-1.40
2023-12-18T22:25:00.885Z,-1.40
2023-12-18T22:27:29.999Z,-1.40
2023-12-18T22:29:58.449Z,-1.50
2023-12-18T22:32:26.940Z,-1.40
2023-12-18T22:34:55.764Z,-1.40
2023-12-18T22:37:24.165Z,-1.40
2023-12-18T22:39:52.241Z,-1.40
2023-12-18T22:42:20.583Z,-1.40
2023-12-18T22:44:51.322Z,-1.40
2023-12-18T22:47:19.448Z,-1.40
2023-12-18T22:49:47.512Z,-1.36
2023-12-18T22:52:15.993Z,-1.36
2023-12-18T22:54:44.396Z,-1.36
2023-12-18T22:57:12.617Z,-1.30
2023-12-18T22:59:41.110Z,-1.30
2023-12-18T23:02:09.216Z,-1.30
2023-12-18T23:04:37.341Z,-1.30
2023-12-18T23:07:05.499Z,-1.20
2023-12-18T23:09:33.722Z,-1.20
2023-12-18T23:12:01.819Z,-1.20
2023-12-18T23:14:30.196Z,-1.20
2023-12-18T23:16:59.839Z,-1.10
2023-12-18T23:19:30.213Z,-1.00
2023-12-18T23:21:58.986Z,-1.10
2023-12-18T23:24:29.919Z,-1.12
2023-12-18T23:26:58.206Z,-1.20
2023-12-18T23:29:26.370Z,-1.20
2023-12-18T23:31:54.399Z,-1.20
2023-12-18T23:34:22.922Z,-1.20
2023-12-18T23:36:51.343Z,-1.10
2023-12-18T23:39:20.110Z,-1.00
2023-12-18T23:41:48.615Z,-1.00
2023-12-18T23:44:16.802Z,-0.90
2023-12-18T23:46:45.766Z,-0.90
2023-12-18T23:49:13.986Z,-0.90
2023-12-18T23:51:42.191Z,-0.90
2023-12-18T23:54:10.583Z,-0.90
2023-12-18T23:56:41.185Z,-0.92
2023-12-18T23:59:09.382Z,-0.90
